• Join FlightAware (Why Join?)
  • Login
  • US Flag 
07:36AM EDT


 

Airport Tracker/Info


-or-


 

Live Flight TrackerFlight Track Log ✈ ASH3770 ✈ 08-Jul-2013 ✈ KIAD - KORF

Flight Track Log - Related Links

Times and Time Zones

All times are in EDT time to prevent confusion due to time zone crossing. See the ASH3770 flight status page for this flight to view local times or setup timezone preferences in your user account.

Time Position Orientation Groundspeed Altitude Reporting Facility
EDT Latitude Longitude Course Direction KTS MPH feet Rate Location/Type
03:49PM 38.9833 -77.5333 124° Southeast 214 246 3,000  Level Potomac TRACON
03:50PM 39.0167 -77.6000 303° West 255 293 4,800 1,860 Climbing Potomac TRACON
03:50PM 39.0667 -77.6667 314° West 266 306 6,600 2,460 Climbing Potomac TRACON
03:52PM 39.1333 -77.6500 11° North 306 352 9,800 1,680 Climbing Potomac TRACON
03:53PM 39.1333 -77.5500 90° East 338 389 10,000 60 Climbing Potomac TRACON
03:54PM 38.4851 -77.1695 124° Southeast  Level Estimated
03:54PM 39.1333 -77.4167 90° East 352 405 10,000  Level Potomac TRACON
03:55PM 39.1333 -77.3000 90° East 349 402 10,000 120 Level Potomac TRACON
03:56PM 39.1167 -77.1833 100° East 344 396 10,300 1,260 Climbing Potomac TRACON
03:58PM 38.9953 -76.9644 125° Southeast 343 395 14,100 1,140 Climbing Washington Center
03:59PM 38.9019 -76.9147 157° South 350 403 14,100 -120 Level Washington Center
04:00PM 38.8086 -76.8650 157° South 361 415 13,900 -60 Descending Washington Center
04:01PM 38.7153 -76.8128 156° South 366 421 14,000  Climbing Washington Center
04:02PM 38.6200 -76.7608 157° South 371 427 14,000  Level Washington Center
04:03PM 38.5244 -76.7247 164° South 371 427 14,000  Level Washington Center
04:04PM 38.4350 -76.7075 171° South 365 420 14,000  Level Washington Center
04:05PM 38.3350 -76.6981 176° South 365 420 14,000 -60 Level Washington Center
04:06PM 38.2369 -76.6833 173° South 360 414 13,900 -60 Descending Washington Center
04:07PM 38.1392 -76.6689 173° South 360 414 13,900  Level Washington Center
04:08PM 38.0392 -76.6675 179° South 360 414 13,900  Level Washington Center
04:09PM 37.9411 -76.6739 183° South 360 414 13,900 -420 Level Washington Center
04:09PM 37.8847 -76.6864 190° South 347 399 13,300 -1,080 Descending Washington Center
04:10PM 37.8264 -76.6539 156° South 355 409 12,600 -960 Descending Washington Center
04:11PM 37.7769 -76.5850 132° Southeast 326 375 11,900 -840 Descending Washington Center
04:12PM 37.7089 -76.4894 132° Southeast 341 392 11,200 -720 Descending Washington Center
04:13PM 37.6428 -76.3969 132° Southeast 346 398 10,500 -720 Descending Washington Center
04:14PM 37.5744 -76.3203 138° Southeast 346 398 9,900 -1,020 Descending Washington Center
04:15PM 37.5039 -76.2750 153° Southeast 315 362 8,500 -1,440 Descending Washington Center
04:16PM 37.4353 -76.2353 155° Southeast 288 331 7,100 -1,200 Descending Washington Center
04:17PM 37.3686 -76.1956 155° Southeast 276 318 6,100 -960 Descending Washington Center
04:17PM 37.3269 -76.1717 155° Southeast 260 299 5,700 -600 Descending Washington Center
04:18PM 37.3042 -76.1558 151° Southeast 271 312 5,500 -600 Descending Washington Center
04:19PM 37.2356 -76.1161 155° Southeast 259 298 4,900 -600 Descending Washington Center
04:20PM 37.1503 -76.0844 164° South 228 262 4,200 -480 Descending Washington Center
04:21PM 37.0981 -76.0658 164° South 220 253 3,900 -360 Descending Washington Center